Time;durP1;ratioP1;P1;durP2;ratioP2;P2;SDS_P1;SDS_P2;PMS_P1;PMS_P2;Temp;Humidity;BMP_temperature;BMP_pressure;BME280_temperature;BME280_humidity;BME280_pressure;Samples;Min_cycle;Max_cycle;Signal;HPM_P1;HPM_P2
2023/11/24 00:02:07;;;;;;;7.35;2.10;;;13.10;99.90;;;;;;10467582;28;20374;-21
2023/11/24 00:07:09;;;;;;;8.02;2.13;;;14.10;99.90;;;;;;10464684;28;20094;-22
2023/11/24 00:12:11;;;;;;;9.43;2.00;;;13.20;99.90;;;;;;10471422;28;20896;-22
2023/11/24 00:17:14;;;;;;;12.27;2.23;;;12.70;99.90;;;;;;10464361;28;20641;-21
2023/11/24 00:22:16;;;;;;;9.77;1.77;;;12.60;99.90;;;;;;10467420;28;20109;-21
2023/11/24 00:27:17;;;;;;;7.10;1.60;;;13.00;99.90;;;;;;10473927;28;20556;-22
2023/11/24 00:32:21;;;;;;;5.83;2.10;;;12.30;99.90;;;;;;10480255;28;20112;-23
2023/11/24 00:37:22;;;;;;;5.05;2.05;;;13.40;99.90;;;;;;10477032;28;20217;-22
2023/11/24 00:42:24;;;;;;;6.67;1.97;;;13.10;99.90;;;;;;10477797;28;20672;-21
2023/11/24 00:47:27;;;;;;;7.80;2.07;;;12.80;99.90;;;;;;10480254;28;20063;-22
2023/11/24 00:52:29;;;;;;;9.60;1.88;;;12.70;99.90;;;;;;10477908;28;20146;-22
2023/11/24 00:57:31;;;;;;;6.57;2.07;;;12.70;99.90;;;;;;10479925;28;20109;-22
2023/11/24 01:02:37;;;;;;;7.50;1.77;;;12.80;99.90;;;;;;10473542;28;20056;-22
2023/11/24 01:07:40;;;;;;;3.65;1.55;;;12.40;99.90;;;;;;10474469;28;20669;-22
2023/11/24 01:12:41;;;;;;;5.25;2.00;;;11.90;99.90;;;;;;10476166;28;20201;-21
2023/11/24 01:17:45;;;;;;;5.17;1.63;;;12.10;99.90;;;;;;10475259;28;20052;-22
2023/11/24 01:22:47;;;;;;;4.90;1.73;;;12.10;99.90;;;;;;10482009;28;20208;-21
2023/11/24 01:27:49;;;;;;;4.37;1.47;;;11.40;99.90;;;;;;10479445;28;20805;-22
2023/11/24 01:32:52;;;;;;;4.28;1.77;;;11.00;99.90;;;;;;10474484;28;20075;-22
2023/11/24 01:37:54;;;;;;;7.20;1.92;;;12.40;99.90;;;;;;10474733;28;20250;-21
2023/11/24 01:42:55;;;;;;;4.93;1.33;;;12.30;99.90;;;;;;10480836;28;20044;-21
2023/11/24 01:47:59;;;;;;;3.20;1.23;;;12.60;99.90;;;;;;10483697;28;20807;-22
2023/11/24 01:53:00;;;;;;;3.38;1.00;;;12.00;99.90;;;;;;10481898;28;20059;-21
2023/11/24 01:58:04;;;;;;;6.30;1.47;;;12.00;99.90;;;;;;10470118;28;20073;-21
2023/11/24 02:03:07;;;;;;;5.75;1.40;;;12.20;99.90;;;;;;10477595;28;20048;-21
2023/11/24 02:08:09;;;;;;;5.32;1.55;;;11.30;99.90;;;;;;10462778;28;20773;-21
2023/11/24 02:13:11;;;;;;;3.67;1.23;;;10.80;99.90;;;;;;10476600;28;20182;-22
2023/11/24 02:18:14;;;;;;;3.73;1.30;;;11.30;99.90;;;;;;10469797;28;20053;-22
2023/11/24 02:23:17;;;;;;;5.78;1.35;;;11.30;99.90;;;;;;10470260;28;20052;-22
2023/11/24 02:28:19;;;;;;;5.70;1.27;;;11.60;99.90;;;;;;10472956;28;20423;-21
2023/11/24 02:33:22;;;;;;;5.10;1.67;;;11.80;99.90;;;;;;10479358;28;20183;-21
2023/11/24 02:38:26;;;;;;;3.90;1.30;;;12.30;99.90;;;;;;10478202;28;20080;-22
2023/11/24 02:43:28;;;;;;;4.82;1.00;;;12.10;99.90;;;;;;10478915;28;20054;-22
2023/11/24 02:48:29;;;;;;;3.85;1.05;;;11.60;99.90;;;;;;10475335;28;20872;-22
2023/11/24 02:53:32;;;;;;;4.10;1.20;;;10.90;99.90;;;;;;10471267;28;20052;-22
2023/11/24 02:58:36;;;;;;;7.65;1.52;;;11.20;99.90;;;;;;10473387;28;20061;-21
2023/11/24 03:03:38;;;;;;;4.07;1.25;;;11.30;99.90;;;;;;10471775;28;20709;-22
2023/11/24 03:08:41;;;;;;;5.73;0.90;;;12.30;99.90;;;;;;10479398;28;20537;-21
2023/11/24 03:13:43;;;;;;;6.47;1.42;;;11.50;99.90;;;;;;10468875;28;20086;-21
2023/11/24 03:18:45;;;;;;;9.13;1.13;;;11.40;99.90;;;;;;10469683;28;20155;-22
2023/11/24 03:23:48;;;;;;;4.90;1.43;;;11.30;99.90;;;;;;10465813;28;20611;-23
2023/11/24 03:28:49;;;;;;;2.42;1.40;;;11.60;99.90;;;;;;10475382;28;20427;-22
2023/11/24 03:33:51;;;;;;;5.93;1.10;;;12.20;99.90;;;;;;10476301;28;20052;-22
2023/11/24 03:38:54;;;;;;;4.20;0.80;;;10.80;99.90;;;;;;10471526;28;20051;-23
2023/11/24 03:43:56;;;;;;;4.03;0.90;;;11.40;99.90;;;;;;10467635;28;20158;-21
2023/11/24 03:48:58;;;;;;;6.00;1.40;;;11.00;99.90;;;;;;10469653;28;20052;-22
2023/11/24 03:54:01;;;;;;;3.83;1.23;;;11.20;99.90;;;;;;10476230;28;20052;-21
2023/11/24 04:15:31;;;;;;;3.83;0.80;;;11.10;99.90;;;;;;10581426;27;20143;-21
2023/11/24 04:20:33;;;;;;;4.25;0.77;;;12.50;99.90;;;;;;10555666;28;20053;-22
2023/11/24 04:25:35;;;;;;;1.95;0.80;;;12.20;99.90;;;;;;10558226;28;20459;-22
2023/11/24 04:30:38;;;;;;;5.93;1.03;;;11.90;99.90;;;;;;10555549;28;20048;-21
2023/11/24 04:35:39;;;;;;;3.92;0.80;;;12.20;99.90;;;;;;10560034;28;20625;-22
2023/11/24 04:40:41;;;;;;;6.97;1.90;;;11.20;99.90;;;;;;10557306;28;20112;-22
2023/11/24 04:45:44;;;;;;;3.57;1.10;;;11.40;99.90;;;;;;10553353;28;20051;-22
2023/11/24 04:50:46;;;;;;;5.53;1.05;;;9.80;99.90;;;;;;10559828;27;20793;-22
2023/11/24 04:55:48;;;;;;;3.83;1.23;;;10.30;99.90;;;;;;10561102;28;20079;-22
2023/11/24 05:00:51;;;;;;;1.90;0.88;;;10.70;99.90;;;;;;10560992;28;20061;-22
2023/11/24 05:05:53;;;;;;;2.15;0.80;;;10.70;99.90;;;;;;10559305;27;20099;-22
2023/11/24 05:10:54;;;;;;;6.20;1.53;;;10.60;99.90;;;;;;10554762;27;20445;-22
2023/11/24 05:15:58;;;;;;;2.78;0.70;;;10.40;99.90;;;;;;10554562;27;20749;-22
2023/11/24 05:20:59;;;;;;;4.38;1.05;;;10.90;99.90;;;;;;10554237;28;20051;-21
2023/11/24 05:26:01;;;;;;;6.03;1.37;;;10.20;99.90;;;;;;10530150;28;20048;-21
2023/11/24 05:31:05;;;;;;;2.22;0.70;;;11.10;99.90;;;;;;10531854;28;20291;-22
2023/11/24 05:36:09;;;;;;;3.97;1.30;;;11.00;99.90;;;;;;10528506;28;20052;-21
2023/11/24 05:41:11;;;;;;;6.97;1.20;;;10.40;99.90;;;;;;10535198;28;20040;-22
2023/11/24 05:46:14;;;;;;;2.40;0.70;;;9.90;99.90;;;;;;10533776;28;20052;-22
2023/11/24 05:51:15;;;;;;;4.82;1.13;;;11.60;99.90;;;;;;10529186;28;20047;-22
2023/11/24 05:56:19;;;;;;;4.10;0.83;;;10.40;99.90;;;;;;10536150;28;20054;-21
2023/11/24 06:01:22;;;;;;;4.30;1.20;;;11.30;99.90;;;;;;10532935;28;20871;-21
2023/11/24 06:06:24;;;;;;;4.20;0.80;;;10.80;99.90;;;;;;10536837;28;20048;-22
2023/11/24 06:11:26;;;;;;;4.43;1.27;;;10.90;99.90;;;;;;10529793;28;20059;-22
2023/11/24 06:16:30;;;;;;;4.53;1.20;;;11.40;99.90;;;;;;10530727;28;20133;-22
2023/11/24 06:21:32;;;;;;;2.38;0.98;;;11.10;99.90;;;;;;10523588;28;20048;-21
2023/11/24 06:26:34;;;;;;;3.35;1.17;;;10.40;99.90;;;;;;10522393;28;20056;-22
2023/11/24 06:31:37;;;;;;;7.13;1.30;;;10.70;99.90;;;;;;10518743;28;20048;-22
2023/11/24 06:36:39;;;;;;;4.85;1.23;;;10.30;99.90;;;;;;10509898;28;20116;-21
2023/11/24 06:41:41;;;;;;;4.03;1.17;;;10.20;99.90;;;;;;10531947;28;20126;-22
2023/11/24 06:46:45;;;;;;;3.25;1.35;;;11.10;99.90;;;;;;10523488;28;20066;-22
2023/11/24 06:51:49;;;;;;;3.88;1.45;;;10.70;99.90;;;;;;10522785;28;20166;-21
2023/11/24 06:56:50;;;;;;;3.75;0.90;;;12.00;99.90;;;;;;10524161;28;20052;-23
2023/11/24 07:01:54;;;;;;;4.03;1.07;;;11.10;99.90;;;;;;10522415;28;20156;-21
2023/11/24 07:06:56;;;;;;;6.18;1.55;;;11.20;99.90;;;;;;10529171;28;20048;-21
2023/11/24 07:11:58;;;;;;;3.25;1.05;;;11.20;99.90;;;;;;10521486;28;20509;-22
2023/11/24 07:17:03;;;;;;;6.93;1.07;;;10.50;99.90;;;;;;10524749;28;20542;-22
2023/11/24 07:22:06;;;;;;;3.45;1.48;;;10.90;99.90;;;;;;10519532;28;20109;-23
2023/11/24 07:27:07;;;;;;;;;;;8.80;99.90;;;;;;10519023;28;20055;-22
2023/11/24 07:32:11;;;;;;;6.60;1.52;;;9.10;99.90;;;;;;10513548;28;19924;-22
2023/11/24 07:37:13;;;;;;;4.75;1.55;;;10.00;99.90;;;;;;10514527;28;20177;-22
2023/11/24 07:42:15;;;;;;;8.32;2.40;;;10.10;99.90;;;;;;10512691;28;20036;-22
2023/11/24 07:47:18;;;;;;;7.73;1.53;;;10.50;99.90;;;;;;10517725;28;20059;-21
2023/11/24 07:52:20;;;;;;;4.63;1.50;;;12.00;99.90;;;;;;10517179;28;20872;-22
2023/11/24 07:57:24;;;;;;;7.15;1.60;;;10.50;99.90;;;;;;10516180;28;20048;-26
2023/11/24 08:02:28;;;;;;;5.53;1.30;;;11.10;99.90;;;;;;10514098;28;20419;-21
2023/11/24 08:07:29;;;;;;;4.18;1.23;;;10.40;99.90;;;;;;10510352;28;20134;-21
2023/11/24 08:12:31;;;;;;;3.67;1.20;;;11.90;99.90;;;;;;10519328;28;20128;-22
2023/11/24 08:17:34;;;;;;;4.73;1.30;;;11.60;99.90;;;;;;10519911;28;20513;-21
2023/11/24 08:22:36;;;;;;;4.88;1.10;;;12.10;99.90;;;;;;10514765;28;20052;-22
2023/11/24 08:27:38;;;;;;;4.33;1.33;;;12.30;99.90;;;;;;10516122;28;20168;-23
2023/11/24 08:32:43;;;;;;;7.53;0.98;;;10.60;99.90;;;;;;10526109;28;20054;-22
2023/11/24 08:37:44;;;;;;;2.30;0.65;;;10.00;99.90;;;;;;10515701;28;20051;-22
2023/11/24 08:42:47;;;;;;;2.10;0.90;;;10.40;99.90;;;;;;10514084;28;20876;-22
2023/11/24 08:47:51;;;;;;;4.78;1.38;;;11.10;99.90;;;;;;10510033;28;20048;-21
2023/11/24 08:52:52;;;;;;;5.65;1.58;;;11.40;99.90;;;;;;10519909;28;20048;-23
2023/11/24 08:57:59;;;;;;;2.95;0.98;;;10.70;99.90;;;;;;10512379;28;20172;-21
2023/11/24 09:03:05;;;;;;;3.20;1.30;;;10.90;99.90;;;;;;10525512;28;20048;-21
2023/11/24 09:08:07;;;;;;;3.95;1.13;;;11.40;99.90;;;;;;10525414;28;20437;-22
2023/11/24 09:13:13;;;;;;;4.93;1.65;;;11.60;99.90;;;;;;10522231;27;20055;-22
2023/11/24 09:18:16;;;;;;;6.78;1.40;;;12.10;99.90;;;;;;10523932;28;20066;-22
2023/11/24 09:23:20;;;;;;;4.88;1.35;;;11.80;99.90;;;;;;10516397;28;20058;-21
2023/11/24 09:28:21;;;;;;;4.88;1.38;;;11.90;98.80;;;;;;10514716;28;20059;-22
2023/11/24 09:33:25;;;;;;;5.00;1.10;;;12.80;99.90;;;;;;10522121;28;20100;-22
2023/11/24 09:38:27;;;;;;;5.63;1.55;;;11.20;99.90;;;;;;10516696;28;20512;-21
2023/11/24 09:43:29;;;;;;;5.37;1.70;;;11.20;99.90;;;;;;10516301;28;20599;-23
2023/11/24 09:48:33;;;;;;;5.30;1.57;;;11.40;99.90;;;;;;10516635;28;20048;-22
2023/11/24 09:53:35;;;;;;;5.25;1.80;;;10.90;99.90;;;;;;10518926;28;20048;-22
2023/11/24 09:58:37;;;;;;;7.67;1.80;;;11.60;97.00;;;;;;10518117;28;20704;-21
2023/11/24 10:03:40;;;;;;;4.75;2.10;;;11.30;99.90;;;;;;10518262;28;20055;-21
2023/11/24 10:08:42;;;;;;;6.32;1.80;;;12.00;99.90;;;;;;10515722;28;20047;-22
2023/11/24 10:13:46;;;;;;;5.68;1.70;;;11.50;95.10;;;;;;10514076;28;20162;-21
2023/11/24 10:18:50;;;;;;;5.45;1.42;;;10.70;98.40;;;;;;10515812;28;20048;-20
2023/11/24 10:23:52;;;;;;;5.00;1.67;;;9.90;97.40;;;;;;10517648;28;20142;-22
2023/11/24 10:28:57;;;;;;;4.40;1.38;;;11.20;98.00;;;;;;10517600;28;20048;-23
2023/11/24 10:34:01;;;;;;;6.05;1.35;;;12.30;99.90;;;;;;10517659;28;20044;-22
2023/11/24 10:39:08;;;;;;;6.53;1.58;;;13.30;99.90;;;;;;10522195;28;20110;-22
2023/11/24 10:44:12;;;;;;;5.50;1.48;;;13.30;95.90;;;;;;10521281;28;20039;-23
2023/11/24 10:49:21;;;;;;;5.57;2.28;;;10.90;96.50;;;;;;10524389;28;20059;-21
2023/11/24 10:54:30;;;;;;;5.00;1.73;;;12.40;99.90;;;;;;10515918;28;20085;-23
2023/11/24 10:59:34;;;;;;;5.88;1.55;;;10.40;99.90;;;;;;10519837;28;20039;-22
2023/11/24 11:04:40;;;;;;;4.70;1.35;;;10.80;99.90;;;;;;10519054;28;20770;-22
2023/11/24 11:09:47;;;;;;;4.88;1.25;;;9.30;99.90;;;;;;10520471;28;22629;-22
2023/11/24 11:14:49;;;;;;;7.07;1.73;;;10.10;99.90;;;;;;10519553;28;20059;-22
2023/11/24 11:19:59;;;;;;;11.60;2.00;;;11.20;99.90;;;;;;10521187;28;20174;-22
2023/11/24 11:25:39;;;;;;;5.97;1.95;;;10.80;96.60;;;;;;10519534;28;20130;-22
2023/11/24 11:30:44;;;;;;;5.10;1.63;;;11.20;86.00;;;;;;10517851;28;20241;-22
2023/11/24 11:35:51;;;;;;;8.82;2.05;;;10.80;99.40;;;;;;10520441;28;20044;-22
2023/11/24 11:40:57;;;;;;;8.55;1.65;;;10.70;97.70;;;;;;10518181;28;20408;-23
2023/11/24 11:46:00;;;;;;;6.45;1.40;;;10.80;99.80;;;;;;10519006;28;20047;-22
2023/11/24 11:51:04;;;;;;;6.57;1.80;;;10.70;95.10;;;;;;10516686;28;20059;-21
2023/11/24 11:56:10;;;;;;;6.20;1.85;;;10.60;99.80;;;;;;10514983;28;20050;-22
2023/11/24 12:01:13;;;;;;;7.45;2.00;;;10.60;99.90;;;;;;10522675;28;20054;-22
2023/11/24 12:06:16;;;;;;;14.02;1.83;;;10.20;96.40;;;;;;10513345;28;20690;-21
2023/11/24 12:11:18;;;;;;;6.82;1.50;;;10.20;99.90;;;;;;10517894;28;20105;-22
2023/11/24 12:16:26;;;;;;;7.72;2.20;;;12.40;98.50;;;;;;10520397;28;20043;-22
2023/11/24 12:21:30;;;;;;;9.27;1.83;;;11.60;97.70;;;;;;10519455;28;20055;-22
2023/11/24 12:26:32;;;;;;;6.32;1.90;;;11.40;92.70;;;;;;10524098;28;20052;-22
2023/11/24 12:31:38;;;;;;;6.00;1.87;;;11.00;99.90;;;;;;10513752;28;20048;-23
2023/11/24 12:36:42;;;;;;;6.40;1.17;;;9.10;99.90;;;;;;10520320;28;20486;-22
2023/11/24 12:41:46;;;;;;;9.50;2.17;;;10.50;99.90;;;;;;10521913;28;20395;-20
2023/11/24 12:46:48;;;;;;;6.72;2.53;;;11.60;99.90;;;;;;10527958;28;20052;-22
2023/11/24 12:51:54;;;;;;;6.20;1.70;;;10.70;99.90;;;;;;10522247;28;20051;-21
2023/11/24 12:56:55;;;;;;;8.00;2.08;;;11.00;99.90;;;;;;10514695;28;20079;-22
2023/11/24 13:01:57;;;;;;;6.60;1.73;;;10.70;99.90;;;;;;10509125;28;20070;-22
2023/11/24 13:07:00;;;;;;;5.83;1.80;;;11.20;99.90;;;;;;10525595;28;20154;-21
2023/11/24 13:12:03;;;;;;;8.13;2.30;;;10.70;99.20;;;;;;10525834;28;20218;-22
2023/11/24 13:17:05;;;;;;;;;;;10.80;99.90;;;;;;10528584;28;20084;-22
2023/11/24 13:22:09;;;;;;;6.10;2.10;;;10.10;99.90;;;;;;10530615;28;19920;-22
2023/11/24 13:27:12;;;;;;;9.80;2.85;;;10.70;99.90;;;;;;10529256;28;20473;-22
2023/11/24 13:32:14;;;;;;;7.55;2.20;;;10.90;99.90;;;;;;10518296;28;20090;-23
2023/11/24 13:37:18;;;;;;;7.80;2.33;;;10.00;99.90;;;;;;10528956;28;20379;-23
2023/11/24 13:42:21;;;;;;;5.70;2.22;;;10.30;99.90;;;;;;10524918;28;20485;-23
2023/11/24 13:47:25;;;;;;;11.25;2.65;;;10.00;99.90;;;;;;10531243;28;20037;-22
2023/11/24 13:52:28;;;;;;;6.55;2.42;;;11.20;99.90;;;;;;10522698;28;20752;-23
2023/11/24 13:57:30;;;;;;;9.02;2.20;;;9.50;99.90;;;;;;10527258;28;20108;-22
2023/11/24 14:02:32;;;;;;;10.50;2.67;;;9.30;99.90;;;;;;10526422;28;20048;-22
2023/11/24 14:07:35;;;;;;;9.03;2.80;;;9.90;99.90;;;;;;10522396;28;20217;-22
2023/11/24 14:12:36;;;;;;;6.85;2.58;;;9.80;99.90;;;;;;10514303;28;20056;-23
2023/11/24 14:17:40;;;;;;;8.32;2.88;;;10.30;99.90;;;;;;10523747;28;20529;-22
2023/11/24 14:22:45;;;;;;;9.25;2.33;;;10.30;99.90;;;;;;10521848;28;20062;-22
2023/11/24 14:27:47;;;;;;;5.07;1.98;;;10.10;99.90;;;;;;10521279;28;20831;-22
2023/11/24 14:32:49;;;;;;;6.43;2.23;;;9.20;99.90;;;;;;10523611;28;20056;-22
2023/11/24 14:37:52;;;;;;;6.17;1.77;;;10.50;99.90;;;;;;10521687;28;20769;-21
2023/11/24 14:42:54;;;;;;;6.93;2.35;;;10.30;99.90;;;;;;10516782;28;20216;-22
2023/11/24 14:47:56;;;;;;;10.57;2.80;;;9.90;99.90;;;;;;10525140;28;20051;-22
2023/11/24 14:52:59;;;;;;;8.07;1.70;;;10.60;99.90;;;;;;10522622;28;20054;-23
2023/11/24 14:58:02;;;;;;;4.95;1.80;;;10.90;99.90;;;;;;10521115;28;20192;-21
2023/11/24 15:03:08;;;;;;;7.10;1.83;;;10.60;99.90;;;;;;10515292;28;20884;-22
2023/11/24 15:08:13;;;;;;;7.47;1.60;;;9.70;99.90;;;;;;10523761;28;20140;-23
2023/11/24 15:13:20;;;;;;;5.90;1.60;;;8.60;99.90;;;;;;10520126;28;20506;-23
2023/11/24 15:18:22;;;;;;;5.28;1.63;;;8.90;99.90;;;;;;10512220;28;20051;-23
2023/11/24 15:23:26;;;;;;;7.75;1.83;;;9.70;99.90;;;;;;10523022;28;20130;-23
2023/11/24 15:28:32;;;;;;;6.75;1.77;;;9.80;99.90;;;;;;10517018;28;20131;-22
2023/11/24 15:33:34;;;;;;;7.38;2.13;;;10.80;99.90;;;;;;10519567;28;20249;-23
2023/11/24 15:38:37;;;;;;;9.47;2.40;;;9.90;99.90;;;;;;10522944;27;20121;-21
2023/11/24 15:43:39;;;;;;;5.93;1.90;;;10.10;99.80;;;;;;10519468;28;20048;-21
2023/11/24 15:48:41;;;;;;;9.63;1.77;;;10.80;99.90;;;;;;10518907;28;20586;-21
2023/11/24 15:53:45;;;;;;;6.23;1.50;;;10.20;99.90;;;;;;10519263;28;20135;-21
2023/11/24 15:58:51;;;;;;;5.13;1.65;;;9.70;99.90;;;;;;10524153;28;20082;-22
2023/11/24 16:03:53;;;;;;;6.30;1.73;;;9.70;99.90;;;;;;10519708;28;20048;-22
2023/11/24 16:08:58;;;;;;;6.27;2.27;;;10.60;99.90;;;;;;10525196;28;20132;-22
2023/11/24 16:14:00;;;;;;;6.13;2.15;;;11.80;99.90;;;;;;10517120;28;20067;-22
2023/11/24 16:19:03;;;;;;;10.25;2.25;;;11.30;99.90;;;;;;10518791;28;20059;-23
2023/11/24 16:24:07;;;;;;;6.95;2.72;;;10.80;99.90;;;;;;10517225;28;20055;-22
2023/11/24 16:29:09;;;;;;;8.60;2.20;;;12.00;99.90;;;;;;10522699;28;20485;-22
2023/11/24 16:34:11;;;;;;;9.30;2.35;;;11.40;99.90;;;;;;10517588;28;20182;-22
2023/11/24 16:39:17;;;;;;;9.03;2.23;;;11.90;99.90;;;;;;10513021;28;20078;-22
2023/11/24 16:44:18;;;;;;;8.25;2.05;;;12.10;99.90;;;;;;10524225;28;20174;-22
2023/11/24 16:49:21;;;;;;;6.43;2.20;;;10.10;99.90;;;;;;10516619;28;20070;-23
2023/11/24 16:54:24;;;;;;;7.90;1.65;;;10.10;99.90;;;;;;10517610;28;20071;-22
2023/11/24 16:59:26;;;;;;;10.18;2.25;;;9.40;99.90;;;;;;10511543;28;20082;-21
2023/11/24 17:04:29;;;;;;;9.77;3.03;;;9.20;99.90;;;;;;10517106;28;20048;-22
2023/11/24 17:09:32;;;;;;;6.15;1.85;;;9.30;99.90;;;;;;10520985;28;20051;-23
2023/11/24 17:14:34;;;;;;;8.40;2.22;;;9.10;99.90;;;;;;10519799;28;20074;-23
2023/11/24 17:19:36;;;;;;;8.35;2.00;;;9.90;99.90;;;;;;10515971;28;20064;-23
2023/11/24 17:24:40;;;;;;;7.43;1.93;;;9.00;99.90;;;;;;10518798;28;20091;-26
2023/11/24 17:29:42;;;;;;;5.22;1.73;;;9.80;99.90;;;;;;10526813;28;20529;-29
2023/11/24 17:34:44;;;;;;;9.50;1.87;;;10.70;99.90;;;;;;10517742;28;20139;-23
2023/11/24 17:39:47;;;;;;;7.90;1.93;;;10.20;99.90;;;;;;10512901;28;20151;-23
2023/11/24 17:44:49;;;;;;;8.32;2.22;;;11.10;99.90;;;;;;10516149;28;20848;-23
2023/11/24 17:49:51;;;;;;;6.53;1.80;;;9.40;99.90;;;;;;10521249;28;20143;-23
2023/11/24 17:54:54;;;;;;;9.27;1.70;;;10.20;99.90;;;;;;10529013;28;20051;-22
2023/11/24 17:59:57;;;;;;;6.80;1.85;;;10.70;99.90;;;;;;10529170;28;20128;-23
2023/11/24 18:05:00;;;;;;;5.93;2.08;;;10.60;99.90;;;;;;10524718;28;20054;-22
2023/11/24 18:10:03;;;;;;;;;;;10.10;99.90;;;;;;10533307;28;20060;-23
2023/11/24 18:15:05;;;;;;;;;;;9.30;99.90;;;;;;10517755;28;20031;-23
2023/11/24 18:20:08;;;;;;;7.40;1.58;;;8.90;99.90;;;;;;10522827;28;19976;-22
2023/11/24 18:25:11;;;;;;;;;;;9.00;99.90;;;;;;10519124;28;20052;-22
2023/11/24 18:30:14;;;;;;;9.35;1.92;;;9.60;99.90;;;;;;10513683;28;20736;-23
2023/11/24 18:35:16;;;;;;;6.80;2.00;;;10.10;99.90;;;;;;10515592;28;20047;-24
2023/11/24 18:40:19;;;;;;;9.70;2.20;;;10.40;99.90;;;;;;10514418;28;20480;-21
2023/11/24 18:45:21;;;;;;;7.40;2.33;;;9.80;98.80;;;;;;10518759;28;20568;-22
2023/11/24 18:50:23;;;;;;;9.87;3.13;;;10.10;99.90;;;;;;10509845;28;20051;-24
2023/11/24 18:55:26;;;;;;;10.63;3.13;;;11.20;99.90;;;;;;10520432;28;20127;-23
2023/11/24 19:00:28;;;;;;;12.85;3.33;;;10.20;96.60;;;;;;10511909;28;20480;-24
2023/11/24 19:05:30;;;;;;;13.10;3.73;;;10.70;99.90;;;;;;10514727;28;20111;-21
2023/11/24 19:10:33;;;;;;;9.52;3.35;;;9.70;94.60;;;;;;10519513;28;20530;-22
2023/11/24 19:15:35;;;;;;;14.10;3.47;;;10.00;97.90;;;;;;10519010;28;20079;-24
2023/11/24 19:20:37;;;;;;;8.55;2.67;;;11.00;94.00;;;;;;10518727;28;20115;-23
2023/11/24 19:25:42;;;;;;;11.90;3.47;;;10.70;99.90;;;;;;10520515;28;20047;-31
2023/11/24 19:30:43;;;;;;;12.00;3.63;;;10.30;95.70;;;;;;10516444;28;20502;-22
2023/11/24 19:35:46;;;;;;;14.43;3.50;;;10.60;94.30;;;;;;10515134;28;20067;-23
2023/11/24 19:40:50;;;;;;;10.00;2.63;;;11.30;96.80;;;;;;10516779;28;20055;-24
2023/11/24 19:45:52;;;;;;;10.52;2.63;;;10.40;97.50;;;;;;10515456;28;20044;-23
2023/11/24 19:50:54;;;;;;;8.88;2.85;;;11.70;99.90;;;;;;10508593;28;20165;-22
2023/11/24 19:55:57;;;;;;;11.10;3.07;;;10.70;99.80;;;;;;10517613;28;20343;-23
2023/11/24 20:01:01;;;;;;;8.93;3.00;;;11.00;99.90;;;;;;10514309;28;20112;-22
2023/11/24 20:06:03;;;;;;;7.97;2.90;;;11.10;99.90;;;;;;10519648;28;20052;-23
2023/11/24 20:11:08;;;;;;;12.95;2.53;;;10.10;99.90;;;;;;10512147;28;21145;-24
2023/11/24 20:16:10;;;;;;;8.13;3.15;;;10.40;99.90;;;;;;10492183;28;20134;-23
2023/11/24 20:21:12;;;;;;;8.82;2.60;;;8.90;99.90;;;;;;10500383;28;20052;-22
2023/11/24 20:26:15;;;;;;;11.90;2.83;;;8.10;99.90;;;;;;10515694;28;20052;-22
2023/11/24 20:31:17;;;;;;;6.13;2.58;;;9.70;99.90;;;;;;10516806;28;20089;-24
2023/11/24 20:36:21;;;;;;;6.00;2.17;;;9.70;99.90;;;;;;10510948;28;20589;-23
2023/11/24 20:41:25;;;;;;;13.10;3.53;;;9.50;99.90;;;;;;10507406;28;20091;-24
2023/11/24 20:46:27;;;;;;;8.10;2.65;;;11.30;99.90;;;;;;10510621;28;20040;-25
2023/11/24 20:51:29;;;;;;;;;;;11.60;96.80;;;;;;10511662;28;20400;-23
2023/11/24 20:56:32;;;;;;;10.68;3.00;;;10.30;99.90;;;;;;10516845;28;20015;-23
2023/11/24 21:01:34;;;;;;;9.55;2.95;;;10.00;99.90;;;;;;10521265;28;20090;-23
2023/11/24 21:06:36;;;;;;;7.72;3.15;;;10.80;99.90;;;;;;10518676;28;20090;-22
2023/11/24 21:11:40;;;;;;;12.17;3.87;;;10.20;99.90;;;;;;10518197;28;20051;-22
2023/11/24 21:16:41;;;;;;;14.35;3.90;;;9.10;99.90;;;;;;10522720;28;20089;-22
2023/11/24 21:21:44;;;;;;;8.83;2.97;;;9.30;99.90;;;;;;10526727;28;20526;-23
2023/11/24 21:26:47;;;;;;;11.25;2.72;;;8.50;99.90;;;;;;10522907;28;20063;-23
2023/11/24 21:31:50;;;;;;;7.40;2.22;;;11.00;99.90;;;;;;10516464;28;20058;-23
2023/11/24 21:36:51;;;;;;;7.00;2.25;;;11.90;99.90;;;;;;10515740;28;20933;-22
2023/11/24 21:41:55;;;;;;;9.63;2.87;;;11.70;99.90;;;;;;10523197;28;20048;-22
2023/11/24 21:46:57;;;;;;;10.27;3.17;;;11.20;99.90;;;;;;10517294;28;20040;-22
2023/11/24 21:51:58;;;;;;;9.50;2.93;;;9.30;99.90;;;;;;10519161;28;20122;-23
2023/11/24 21:57:02;;;;;;;9.80;3.20;;;9.70;99.90;;;;;;10519319;28;20728;-22
2023/11/24 22:02:04;;;;;;;8.43;3.75;;;11.70;99.90;;;;;;10519201;28;20142;-22
2023/11/24 22:07:06;;;;;;;10.70;3.58;;;11.90;99.90;;;;;;10518639;28;20044;-23
2023/11/24 22:12:09;;;;;;;9.40;3.43;;;11.60;97.20;;;;;;10513378;28;20174;-23
2023/11/24 22:17:11;;;;;;;8.68;4.03;;;13.20;99.90;;;;;;10517560;28;20073;-24
2023/11/24 22:22:13;;;;;;;10.47;3.80;;;13.70;97.60;;;;;;10525055;28;20082;-24
2023/11/24 22:27:17;;;;;;;13.43;4.33;;;12.10;99.90;;;;;;10523899;28;20862;-23
2023/11/24 22:32:19;;;;;;;12.48;3.97;;;11.20;99.90;;;;;;10520736;28;20671;-22
2023/11/24 22:37:20;;;;;;;11.90;3.87;;;13.10;99.90;;;;;;10527544;28;20395;-24
2023/11/24 22:42:24;;;;;;;9.60;3.87;;;13.80;99.70;;;;;;10522289;28;20058;-23
2023/11/24 22:47:26;;;;;;;11.00;3.78;;;13.10;99.90;;;;;;10503819;28;20036;-23
2023/11/24 22:52:28;;;;;;;12.47;4.30;;;13.60;98.40;;;;;;10528116;28;20047;-23
2023/11/24 22:57:32;;;;;;;11.20;4.20;;;12.80;99.90;;;;;;10526834;28;20051;-23
2023/11/24 23:02:33;;;;;;;6.85;3.30;;;13.80;99.80;;;;;;10524494;28;20069;-22
2023/11/24 23:07:36;;;;;;;11.83;3.57;;;12.50;99.90;;;;;;10529750;28;20044;-22
2023/11/24 23:12:39;;;;;;;10.43;4.45;;;12.40;99.90;;;;;;10523717;28;20149;-23
2023/11/24 23:17:43;;;;;;;10.05;4.65;;;12.10;99.90;;;;;;10529721;28;20322;-22
2023/11/24 23:22:45;;;;;;;9.48;3.60;;;12.50;99.90;;;;;;10521499;28;20056;-23
2023/11/24 23:27:48;;;;;;;8.53;3.30;;;12.70;99.30;;;;;;10533479;28;20201;-22
2023/11/24 23:32:50;;;;;;;14.73;4.68;;;12.40;98.00;;;;;;10528233;28;20739;-22
2023/11/24 23:37:51;;;;;;;10.37;4.77;;;12.10;99.70;;;;;;10521277;28;20520;-22
2023/11/24 23:42:55;;;;;;;11.90;4.97;;;12.10;99.90;;;;;;10528166;28;20043;-22
2023/11/24 23:47:57;;;;;;;14.48;5.30;;;13.10;99.30;;;;;;10523063;28;20586;-22
2023/11/24 23:53:00;;;;;;;9.52;4.72;;;11.80;99.90;;;;;;10518008;28;20048;-24
2023/11/24 23:58:04;;;;;;;13.52;5.60;;;11.90;99.90;;;;;;10531068;28;20044;-22
